Time;durP1;ratioP1;P1;durP2;ratioP2;P2;SDS_P1;SDS_P2;PMS_P1;PMS_P2;Temp;Humidity;BMP_temperature;BMP_pressure;BME280_temperature;BME280_humidity;BME280_pressure;Samples;Min_cycle;Max_cycle;Signal;HPM_P1;HPM_P2
2024/04/19 00:01:34;;;;;;;;;;;;;;;;;;5452264;26;19929;-61
2024/04/19 00:03:59;;;;;;;;;;;;;;;;;;5451959;26;19936;-60
2024/04/19 00:06:24;;;;;;;;;;;;;;;;;;5452072;26;19932;-61
2024/04/19 00:08:50;;;;;;;;;;;;;;;;;;5451806;26;19951;-61
2024/04/19 00:11:15;;;;;;;;;;;;;;;;;;5451527;26;20393;-60
2024/04/19 00:13:40;;;;;;;;;;;;;;;;;;5457134;26;20377;-61
2024/04/19 00:16:05;;;;;;;;;;;;;;;;;;5443233;26;20322;-61
2024/04/19 00:18:30;;;;;;;;;;;;;;;;;;5417124;26;20085;-61
2024/04/19 00:20:55;;;;;;;;;;;;;;;;;;5416793;26;19985;-60
2024/04/19 00:23:20;;;;;;;;;;;;;;;;;;5421753;26;19936;-60
2024/04/19 00:25:45;;;;;;;;;;;;;;;;;;5451814;26;20375;-60
2024/04/19 00:28:11;;;;;;;;;;;;;;;;;;5451759;26;19928;-59
2024/04/19 00:30:36;;;;;;;;;;;;;;;;;;5451493;26;19936;-61
2024/04/19 00:33:01;;;;;;;;;;;;;;;;;;5451591;26;19928;-60
2024/04/19 00:35:26;;;;;;;;;;;;;;;;;;5451538;26;19936;-61
2024/04/19 00:37:52;;;;;;;;;;;;;;;;;;5451672;26;19938;-61
2024/04/19 00:40:17;;;;;;;;;;;;;;;;;;5451418;26;19928;-61
2024/04/19 00:42:42;;;;;;;;;;;;;;;;;;5456233;26;19940;-60
2024/04/19 00:45:07;;;;;;;;;;;;;;;;;;5451751;26;19928;-61
2024/04/19 00:47:33;;;;;;;;;;;;;;;;;;5451596;26;19929;-60
2024/04/19 00:49:58;;;;;;;;;;;;;;;;;;5451269;26;19940;-59
2024/04/19 00:52:23;;;;;;;;;;;;;;;;;;5451484;26;19929;-59
2024/04/19 00:54:48;;;;;;;;;;;;;;;;;;5451274;26;19932;-59
2024/04/19 00:57:13;;;;;;;;;;;;;;;;;;5450931;26;19952;-59
2024/04/19 00:59:38;;;;;;;;;;;;;;;;;;5451589;26;19928;-59
2024/04/19 01:02:03;;;;;;;;;;;;;;;;;;5450815;26;19940;-61
2024/04/19 01:04:28;;;;;;;;;;;;;;;;;;5451479;26;19933;-60
2024/04/19 01:06:54;;;;;;;;;;;;;;;;;;5451387;26;19932;-61
2024/04/19 01:09:19;;;;;;;;;;;;;;;;;;5438499;26;20352;-60
2024/04/19 01:11:44;;;;;;;;;;;;;;;;;;5416682;26;19936;-61
2024/04/19 01:14:09;;;;;;;;;;;;;;;;;;5453069;26;19933;-62
2024/04/19 01:16:37;;;;;;;;;;;;;;;;;;5450999;26;19937;-61
2024/04/19 01:19:02;;;;;;;;;;;;;;;;;;5455696;26;20389;-60
2024/04/19 01:21:27;;;;;;;;;;;;;;;;;;5451036;26;19997;-59
2024/04/19 01:23:53;;;;;;;;;;;;;;;;;;5450854;26;19997;-60
2024/04/19 01:26:18;;;;;;;;;;;;;;;;;;5453447;26;19928;-59
2024/04/19 01:28:45;;;;;;;;;;;;;;;;;;5450438;26;19928;-61
2024/04/19 01:31:10;;;;;;;;;;;;;;;;;;5449625;26;19936;-59
2024/04/19 01:33:35;;;;;;;;;;;;;;;;;;5450674;26;19932;-61
2024/04/19 01:36:00;;;;;;;;;;;;;;;;;;5450526;26;19932;-62
2024/04/19 01:38:25;;;;;;;;;;;;;;;;;;5450699;26;19928;-62
2024/04/19 01:40:50;;;;;;;;;;;;;;;;;;5450287;26;19936;-62
2024/04/19 01:43:15;;;;;;;;;;;;;;;;;;5454312;26;19936;-62
2024/04/19 01:45:41;;;;;;;;;;;;;;;;;;5450675;26;19932;-62
2024/04/19 01:48:06;;;;;;;;;;;;;;;;;;5449914;26;19936;-62
2024/04/19 01:50:31;;;;;;;;;;;;;;;;;;5450482;26;19964;-61
2024/04/19 01:52:56;;;;;;;;;;;;;;;;;;5449993;26;19928;-62
2024/04/19 01:55:21;;;;;;;;;;;;;;;;;;5450412;26;20257;-62
2024/04/19 01:57:46;;;;;;;;;;;;;;;;;;5450176;26;19928;-62
2024/04/19 02:00:12;;;;;;;;;;;;;;;;;;5450126;26;20399;-62
2024/04/19 02:02:37;;;;;;;;;;;;;;;;;;5448716;26;19935;-62
2024/04/19 02:05:02;;;;;;;;;;;;;;;;;;5449907;26;19936;-62
2024/04/19 02:07:27;;;;;;;;;;;;;;;;;;5450119;26;19940;-62
2024/04/19 02:09:52;;;;;;;;;;;;;;;;;;5447364;26;19929;-62
2024/04/19 02:12:17;;;;;;;;;;;;;;;;;;5447900;26;19929;-62
2024/04/19 02:14:42;;;;;;;;;;;;;;;;;;5453428;26;19932;-62
2024/04/19 02:17:07;;;;;;;;;;;;;;;;;;5450365;26;19932;-62
2024/04/19 02:19:39;;;;;;;;;;;;;;;;;;5449974;26;19944;-62
2024/04/19 02:22:04;;;;;;;;;;;;;;;;;;5449633;26;19928;-62
2024/04/19 02:24:29;;;;;;;;;;;;;;;;;;5449947;26;19939;-62
2024/04/19 02:26:55;;;;;;;;;;;;;;;;;;5452682;26;19932;-62
2024/04/19 02:32:04;;;;;;;;;;;;;;;;;;5415240;26;20651;-62
2024/04/19 02:34:29;;;;;;;;;;;;;;;;;;5415112;26;19929;-62
2024/04/19 02:36:54;;;;;;;;;;;;;;;;;;5414909;26;20476;-62
2024/04/19 02:39:19;;;;;;;;;;;;;;;;;;5419858;26;19929;-62
2024/04/19 02:41:44;;;;;;;;;;;;;;;;;;5449402;26;19955;-62
2024/04/19 02:44:10;;;;;;;;;;;;;;;;;;5452384;26;20373;-62
2024/04/19 02:46:35;;;;;;;;;;;;;;;;;;5449681;26;19928;-62
2024/04/19 02:49:00;;;;;;;;;;;;;;;;;;5449441;26;19928;-61
2024/04/19 02:51:25;;;;;;;;;;;;;;;;;;5449232;26;19929;-60
2024/04/19 02:53:50;;;;;;;;;;;;;;;;;;5449758;26;20351;-60
2024/04/19 02:56:15;;;;;;;;;;;;;;;;;;5448713;26;20387;-60
2024/04/19 02:58:40;;;;;;;;;;;;;;;;;;5448962;26;19929;-61
2024/04/19 03:01:06;;;;;;;;;;;;;;;;;;5449199;26;19936;-60
2024/04/19 03:03:31;;;;;;;;;;;;;;;;;;5449346;26;20334;-59
2024/04/19 03:05:56;;;;;;;;;;;;;;;;;;5435295;26;19929;-61
2024/04/19 03:08:21;;;;;;;;;;;;;;;;;;5427498;26;19940;-60
2024/04/19 03:10:46;;;;;;;;;;;;;;;;;;5414313;26;19936;-61
2024/04/19 03:13:11;;;;;;;;;;;;;;;;;;5428743;26;19932;-61
2024/04/19 03:15:39;;;;;;;;;;;;;;;;;;5452414;26;19928;-61
2024/04/19 03:18:04;;;;;;;;;;;;;;;;;;5445948;26;19928;-61
2024/04/19 03:20:30;;;;;;;;;;;;;;;;;;5452336;26;19940;-61
2024/04/19 03:22:55;;;;;;;;;;;;;;;;;;5451780;26;19944;-58
2024/04/19 03:25:20;;;;;;;;;;;;;;;;;;5452139;26;19928;-60
2024/04/19 03:27:45;;;;;;;;;;;;;;;;;;5452722;26;19940;-62
2024/04/19 03:30:10;;;;;;;;;;;;;;;;;;5452425;26;19998;-60
2024/04/19 03:32:35;;;;;;;;;;;;;;;;;;5452860;26;19936;-61
2024/04/19 03:35:00;;;;;;;;;;;;;;;;;;5452954;26;19932;-61
2024/04/19 03:37:25;;;;;;;;;;;;;;;;;;5452979;26;19943;-60
2024/04/19 03:39:51;;;;;;;;;;;;;;;;;;5453009;26;19935;-60
2024/04/19 03:42:20;;;;;;;;;;;;;;;;;;5452354;26;19928;-62
2024/04/19 03:47:28;;;;;;;;;;;;;;;;;;5451877;26;19986;-61
2024/04/19 03:49:53;;;;;;;;;;;;;;;;;;5452881;26;20268;-61
2024/04/19 03:52:19;;;;;;;;;;;;;;;;;;5452728;26;20303;-61
2024/04/19 03:54:44;;;;;;;;;;;;;;;;;;5452707;26;20326;-61
2024/04/19 03:57:09;;;;;;;;;;;;;;;;;;5452144;26;19928;-61
2024/04/19 03:59:34;;;;;;;;;;;;;;;;;;5452607;26;19936;-60
2024/04/19 04:02:01;;;;;;;;;;;;;;;;;;5452437;26;20001;-61
2024/04/19 04:04:27;;;;;;;;;;;;;;;;;;5452871;26;19936;-61
2024/04/19 04:06:52;;;;;;;;;;;;;;;;;;5448716;26;20703;-59
2024/04/19 04:09:17;;;;;;;;;;;;;;;;;;5452397;26;20287;-59
2024/04/19 04:11:42;;;;;;;;;;;;;;;;;;5451660;26;20361;-61
2024/04/19 04:14:08;;;;;;;;;;;;;;;;;;5479322;26;19928;-60
2024/04/19 04:16:33;;;;;;;;;;;;;;;;;;5489436;26;19928;-61
2024/04/19 04:18:58;;;;;;;;;;;;;;;;;;5488876;26;19967;-60
2024/04/19 04:21:23;;;;;;;;;;;;;;;;;;5487852;26;19931;-61
2024/04/19 04:23:49;;;;;;;;;;;;;;;;;;5452080;26;20311;-59
2024/04/19 04:26:14;;;;;;;;;;;;;;;;;;5450140;26;20291;-59
2024/04/19 04:28:39;;;;;;;;;;;;;;;;;;5477039;26;19928;-62
2024/04/19 04:31:04;;;;;;;;;;;;;;;;;;5486439;26;19928;-60
2024/04/19 04:33:29;;;;;;;;;;;;;;;;;;5483289;26;20361;-60
2024/04/19 04:35:54;;;;;;;;;;;;;;;;;;5480223;26;19962;-60
2024/04/19 04:38:19;;;;;;;;;;;;;;;;;;5486556;26;19934;-58
2024/04/19 04:40:44;;;;;;;;;;;;;;;;;;5486179;26;19939;-60
2024/04/19 04:43:10;;;;;;;;;;;;;;;;;;5479941;26;20379;-61
2024/04/19 04:45:35;;;;;;;;;;;;;;;;;;5488317;26;19932;-58
2024/04/19 04:48:00;;;;;;;;;;;;;;;;;;5488367;26;19928;-60
2024/04/19 04:50:25;;;;;;;;;;;;;;;;;;5488342;26;19927;-59
2024/04/19 04:52:50;;;;;;;;;;;;;;;;;;5472385;26;20467;-61
2024/04/19 04:55:16;;;;;;;;;;;;;;;;;;5451206;26;19932;-61
2024/04/19 04:57:41;;;;;;;;;;;;;;;;;;5473095;26;19934;-60
2024/04/19 05:00:06;;;;;;;;;;;;;;;;;;5482048;26;19939;-61
2024/04/19 05:02:32;;;;;;;;;;;;;;;;;;5471992;26;19936;-59
2024/04/19 05:04:57;;;;;;;;;;;;;;;;;;5482926;26;19932;-59
2024/04/19 05:07:23;;;;;;;;;;;;;;;;;;5485600;26;19996;-59
2024/04/19 05:09:51;;;;;;;;;;;;;;;;;;5473658;26;19944;-60
2024/04/19 05:12:16;;;;;;;;;;;;;;;;;;5484436;26;20004;-61
2024/04/19 05:14:41;;;;;;;;;;;;;;;;;;5452232;26;20335;-60
2024/04/19 05:17:06;;;;;;;;;;;;;;;;;;5485834;26;19944;-60
2024/04/19 05:19:31;;;;;;;;;;;;;;;;;;5487791;26;19927;-60
2024/04/19 05:21:56;;;;;;;;;;;;;;;;;;5469444;26;19929;-61
2024/04/19 05:24:22;;;;;;;;;;;;;;;;;;5450083;26;19928;-60
2024/04/19 05:26:47;;;;;;;;;;;;;;;;;;5450996;26;19928;-59
2024/04/19 05:29:12;;;;;;;;;;;;;;;;;;5450913;26;19972;-61
2024/04/19 05:31:37;;;;;;;;;;;;;;;;;;5450850;26;19935;-60
2024/04/19 05:34:02;;;;;;;;;;;;;;;;;;5451066;26;19939;-61
2024/04/19 05:36:27;;;;;;;;;;;;;;;;;;5450937;26;19935;-61
2024/04/19 05:38:52;;;;;;;;;;;;;;;;;;5450802;26;19929;-60
2024/04/19 05:41:17;;;;;;;;;;;;;;;;;;5451477;26;19928;-62
2024/04/19 05:43:44;;;;;;;;;;;;;;;;;;5454206;26;19956;-61
2024/04/19 05:46:10;;;;;;;;;;;;;;;;;;5451387;26;19932;-60
2024/04/19 05:48:35;;;;;;;;;;;;;;;;;;5451146;26;20361;-60
2024/04/19 05:51:00;;;;;;;;;;;;;;;;;;5450617;26;19947;-61
2024/04/19 05:53:25;;;;;;;;;;;;;;;;;;5450662;26;19929;-60
2024/04/19 05:55:50;;;;;;;;;;;;;;;;;;5450862;26;19936;-60
2024/04/19 05:58:15;;;;;;;;;;;;;;;;;;5450683;26;20268;-61
2024/04/19 06:00:40;;;;;;;;;;;;;;;;;;5450688;26;19928;-60
2024/04/19 06:03:05;;;;;;;;;;;;;;;;;;5450885;26;19935;-60
2024/04/19 06:05:31;;;;;;;;;;;;;;;;;;5450934;26;19940;-61
2024/04/19 06:07:56;;;;;;;;;;;;;;;;;;5450327;26;19936;-60
2024/04/19 06:10:21;;;;;;;;;;;;;;;;;;5450646;26;19929;-60
2024/04/19 06:12:46;;;;;;;;;;;;;;;;;;5450388;26;19932;-60
2024/04/19 06:15:11;;;;;;;;;;;;;;;;;;5449536;26;19964;-60
2024/04/19 06:17:37;;;;;;;;;;;;;;;;;;5450160;26;19932;-60
2024/04/19 06:20:02;;;;;;;;;;;;;;;;;;5450316;26;20346;-60
2024/04/19 06:22:27;;;;;;;;;;;;;;;;;;5450252;26;19928;-60
2024/04/19 06:24:52;;;;;;;;;;;;;;;;;;5450567;26;19932;-61
2024/04/19 06:27:17;;;;;;;;;;;;;;;;;;5450363;26;19929;-61
2024/04/19 06:29:42;;;;;;;;;;;;;;;;;;5451071;26;19928;-61
2024/04/19 06:32:09;;;;;;;;;;;;;;;;;;5449281;26;19937;-61
2024/04/19 06:34:34;;;;;;;;;;;;;;;;;;5450037;26;19936;-61
2024/04/19 06:36:59;;;;;;;;;;;;;;;;;;5450180;26;19929;-60
2024/04/19 06:39:28;;;;;;;;;;;;;;;;;;5449208;26;19933;-61
2024/04/19 06:41:53;;;;;;;;;;;;;;;;;;5446377;26;19974;-61
2024/04/19 06:44:19;;;;;;;;;;;;;;;;;;5449809;26;19934;-61
2024/04/19 06:46:44;;;;;;;;;;;;;;;;;;5450176;26;20354;-61
2024/04/19 06:49:09;;;;;;;;;;;;;;;;;;5451195;26;20264;-62
2024/04/19 06:51:34;;;;;;;;;;;;;;;;;;5453394;26;20300;-61
2024/04/19 06:53:59;;;;;;;;;;;;;;;;;;5453090;26;20265;-60
2024/04/19 06:56:24;;;;;;;;;;;;;;;;;;5453618;26;19928;-61
2024/04/19 06:58:49;;;;;;;;;;;;;;;;;;5453147;26;19965;-60
2024/04/19 07:01:15;;;;;;;;;;;;;;;;;;5453341;26;19939;-61
2024/04/19 07:03:40;;;;;;;;;;;;;;;;;;5453506;26;19929;-61
2024/04/19 07:06:05;;;;;;;;;;;;;;;;;;5453229;26;19928;-62
2024/04/19 07:08:30;;;;;;;;;;;;;;;;;;5452273;26;19998;-62
2024/04/19 07:10:55;;;;;;;;;;;;;;;;;;5451333;26;19935;-62
2024/04/19 07:13:20;;;;;;;;;;;;;;;;;;5455513;26;19964;-61
2024/04/19 07:15:45;;;;;;;;;;;;;;;;;;5453129;26;20531;-61
2024/04/19 07:18:10;;;;;;;;;;;;;;;;;;5453143;26;19985;-61
2024/04/19 07:20:36;;;;;;;;;;;;;;;;;;5452583;26;19935;-61
2024/04/19 07:23:01;;;;;;;;;;;;;;;;;;5452961;26;19998;-60
2024/04/19 07:25:26;;;;;;;;;;;;;;;;;;5452887;26;20266;-62
2024/04/19 07:27:51;;;;;;;;;;;;;;;;;;5453120;26;19937;-61
2024/04/19 07:30:16;;;;;;;;;;;;;;;;;;5452832;26;20360;-61
2024/04/19 07:32:41;;;;;;;;;;;;;;;;;;5453246;26;19928;-59
2024/04/19 07:35:06;;;;;;;;;;;;;;;;;;5452939;26;19936;-61
2024/04/19 07:37:32;;;;;;;;;;;;;;;;;;5453035;26;20327;-61
2024/04/19 07:39:57;;;;;;;;;;;;;;;;;;5453042;26;19997;-61
2024/04/19 07:42:22;;;;;;;;;;;;;;;;;;5453252;26;19928;-61
2024/04/19 07:44:47;;;;;;;;;;;;;;;;;;5464382;26;19939;-62
2024/04/19 07:47:12;;;;;;;;;;;;;;;;;;5452829;26;19935;-61
2024/04/19 07:49:37;;;;;;;;;;;;;;;;;;5453140;26;20005;-62
2024/04/19 07:52:02;;;;;;;;;;;;;;;;;;5452313;26;19940;-61
2024/04/19 07:54:27;;;;;;;;;;;;;;;;;;5452101;26;19929;-60
2024/04/19 07:56:53;;;;;;;;;;;;;;;;;;5452721;26;19936;-61
2024/04/19 07:59:18;;;;;;;;;;;;;;;;;;5452495;26;20497;-60
2024/04/19 08:01:43;;;;;;;;;;;;;;;;;;5452421;26;20365;-61
2024/04/19 08:04:08;;;;;;;;;;;;;;;;;;5452789;26;20366;-61
2024/04/19 08:06:33;;;;;;;;;;;;;;;;;;5452348;26;20398;-61
2024/04/19 08:08:58;;;;;;;;;;;;;;;;;;5452584;26;19930;-62
2024/04/19 08:11:23;;;;;;;;;;;;;;;;;;5452695;26;20409;-61
2024/04/19 08:13:48;;;;;;;;;;;;;;;;;;5452129;26;20273;-61
2024/04/19 08:16:14;;;;;;;;;;;;;;;;;;5452626;26;20269;-61
2024/04/19 08:18:39;;;;;;;;;;;;;;;;;;5452665;26;19928;-61
2024/04/19 08:21:04;;;;;;;;;;;;;;;;;;5452499;26;19965;-61
2024/04/19 08:23:29;;;;;;;;;;;;;;;;;;5452444;26;19935;-62
2024/04/19 08:25:54;;;;;;;;;;;;;;;;;;5451992;26;19997;-62
2024/04/19 08:28:19;;;;;;;;;;;;;;;;;;5452292;26;19935;-61
2024/04/19 08:30:44;;;;;;;;;;;;;;;;;;5451359;26;19947;-61
2024/04/19 08:33:10;;;;;;;;;;;;;;;;;;5452019;26;19935;-61
2024/04/19 08:35:35;;;;;;;;;;;;;;;;;;5451308;26;20334;-61
2024/04/19 08:38:00;;;;;;;;;;;;;;;;;;5451721;26;19935;-61
2024/04/19 08:40:28;;;;;;;;;;;;;;;;;;5452134;26;20207;-61
2024/04/19 08:42:54;;;;;;;;;;;;;;;;;;5451909;26;19936;-61
2024/04/19 08:45:19;;;;;;;;;;;;;;;;;;5449145;26;19929;-62
2024/04/19 08:47:44;;;;;;;;;;;;;;;;;;5451707;26;19928;-61
2024/04/19 08:50:09;;;;;;;;;;;;;;;;;;5452102;26;19937;-61
2024/04/19 08:52:34;;;;;;;;;;;;;;;;;;5452051;26;19940;-61
2024/04/19 08:55:05;;;;;;;;;;;;;;;;;;5451875;26;19937;-61
2024/04/19 08:57:30;;;;;;;;;;;;;;;;;;5451761;26;19959;-61
2024/04/19 08:59:56;;;;;;;;;;;;;;;;;;5451526;26;19933;-61
2024/04/19 09:02:21;;;;;;;;;;;;;;;;;;5451566;26;19928;-61
2024/04/19 09:04:46;;;;;;;;;;;;;;;;;;5451218;26;19928;-62
2024/04/19 09:07:11;;;;;;;;;;;;;;;;;;5450751;26;19929;-63
2024/04/19 09:09:36;;;;;;;;;;;;;;;;;;5451252;26;19936;-61
2024/04/19 09:12:01;;;;;;;;;;;;;;;;;;5450993;26;19937;-62
2024/04/19 09:14:26;;;;;;;;;;;;;;;;;;5451433;26;19928;-61
2024/04/19 09:16:51;;;;;;;;;;;;;;;;;;5451722;26;19939;-62
2024/04/19 09:19:16;;;;;;;;;;;;;;;;;;5451680;26;19935;-63
2024/04/19 09:21:42;;;;;;;;;;;;;;;;;;5451429;26;20005;-62
2024/04/19 09:24:09;;;;;;;;;;;;;;;;;;5451087;26;19997;-62
2024/04/19 09:26:34;;;;;;;;;;;;;;;;;;5451191;26;19940;-62
2024/04/19 09:28:59;;;;;;;;;;;;;;;;;;5451005;26;19928;-61
2024/04/19 09:31:24;;;;;;;;;;;;;;;;;;5451231;26;19929;-61
2024/04/19 09:33:51;;;;;;;;;;;;;;;;;;5451324;26;19929;-61
2024/04/19 09:36:18;;;;;;;;;;;;;;;;;;5451385;26;19940;-61
2024/04/19 09:38:43;;;;;;;;;;;;;;;;;;5451533;26;19952;-60
2024/04/19 09:41:08;;;;;;;;;;;;;;;;;;5451105;26;19929;-61
2024/04/19 09:43:33;;;;;;;;;;;;;;;;;;5451204;26;20581;-61
2024/04/19 09:45:58;;;;;;;;;;;;;;;;;;5450653;26;19968;-63
2024/04/19 09:48:23;;;;;;;;;;;;;;;;;;5451424;26;19936;-63
2024/04/19 09:50:49;;;;;;;;;;;;;;;;;;5451070;26;20384;-63
2024/04/19 09:53:14;;;;;;;;;;;;;;;;;;5450669;26;19936;-63
2024/04/19 09:55:40;;;;;;;;;;;;;;;;;;5451199;26;19928;-63
2024/04/19 09:58:05;;;;;;;;;;;;;;;;;;5451185;26;19928;-63
2024/04/19 10:00:30;;;;;;;;;;;;;;;;;;5436191;26;19929;-63
2024/04/19 10:02:55;;;;;;;;;;;;;;;;;;5415030;26;20384;-64
2024/04/19 10:05:20;;;;;;;;;;;;;;;;;;5415065;26;19998;-64
2024/04/19 10:07:46;;;;;;;;;;;;;;;;;;5422878;26;19936;-64
2024/04/19 10:10:11;;;;;;;;;;;;;;;;;;5450731;26;19934;-64
2024/04/19 10:12:36;;;;;;;;;;;;;;;;;;5450767;26;19935;-64
2024/04/19 10:15:01;;;;;;;;;;;;;;;;;;5451417;26;19938;-64
2024/04/19 10:20:13;;;;;;;;;;;;;;;;;;5461335;26;19938;-64
2024/04/19 10:22:38;;;;;;;;;;;;;;;;;;5486680;26;20051;-64
2024/04/19 10:25:03;;;;;;;;;;;;;;;;;;5473683;26;20057;-63
2024/04/19 10:27:28;;;;;;;;;;;;;;;;;;5451156;26;19956;-64
2024/04/19 10:29:53;;;;;;;;;;;;;;;;;;5450826;26;19929;-64
2024/04/19 10:32:18;;;;;;;;;;;;;;;;;;5451084;26;19942;-64
2024/04/19 10:34:44;;;;;;;;;;;;;;;;;;5449795;26;19947;-64
2024/04/19 10:37:09;;;;;;;;;;;;;;;;;;5450015;26;19928;-63
2024/04/19 10:39:34;;;;;;;;;;;;;;;;;;5450080;26;19932;-63
2024/04/19 10:41:59;;;;;;;;;;;;;;;;;;5451733;26;19937;-63
2024/04/19 10:44:26;;;;;;;;;;;;;;;;;;5450131;26;20009;-62
2024/04/19 10:46:51;;;;;;;;;;;;;;;;;;5449705;26;20578;-63
2024/04/19 10:49:20;;;;;;;;;;;;;;;;;;5450306;26;20001;-63
2024/04/19 10:51:45;;;;;;;;;;;;;;;;;;5449673;26;19940;-63
2024/04/19 10:54:11;;;;;;;;;;;;;;;;;;5449946;26;20689;-62
2024/04/19 10:56:37;;;;;;;;;;;;;;;;;;5448399;26;20191;-62
2024/04/19 10:59:02;;;;;;;;;;;;;;;;;;5449763;26;20277;-62
2024/04/19 11:01:27;;;;;;;;;;;;;;;;;;5449697;26;20002;-60
2024/04/19 11:03:52;;;;;;;;;;;;;;;;;;5449726;26;20064;-62
2024/04/19 11:06:17;;;;;;;;;;;;;;;;;;5449102;26;20383;-62
2024/04/19 11:08:42;;;;;;;;;;;;;;;;;;5448537;26;19932;-60
2024/04/19 11:11:07;;;;;;;;;;;;;;;;;;5449639;26;19965;-60
2024/04/19 11:13:33;;;;;;;;;;;;;;;;;;5449766;26;19929;-61
2024/04/19 11:15:58;;;;;;;;;;;;;;;;;;5448412;26;19936;-60
2024/04/19 11:18:23;;;;;;;;;;;;;;;;;;5449880;26;19932;-61
2024/04/19 11:20:48;;;;;;;;;;;;;;;;;;5449674;26;20346;-60
2024/04/19 11:23:13;;;;;;;;;;;;;;;;;;5449569;26;19928;-61
2024/04/19 11:25:40;;;;;;;;;;;;;;;;;;5448741;26;19936;-61
2024/04/19 11:28:05;;;;;;;;;;;;;;;;;;5448793;26;19936;-62
2024/04/19 11:30:30;;;;;;;;;;;;;;;;;;5449534;26;19935;-61
2024/04/19 11:32:56;;;;;;;;;;;;;;;;;;5448475;26;19947;-61
2024/04/19 11:35:21;;;;;;;;;;;;;;;;;;5450433;26;19954;-61
2024/04/19 11:37:47;;;;;;;;;;;;;;;;;;5452296;26;19938;-61
2024/04/19 11:40:13;;;;;;;;;;;;;;;;;;5452893;26;19936;-61
2024/04/19 11:42:38;;;;;;;;;;;;;;;;;;5452580;26;19929;-62
2024/04/19 11:45:04;;;;;;;;;;;;;;;;;;5453061;26;19928;-61
2024/04/19 11:47:30;;;;;;;;;;;;;;;;;;5452502;26;19940;-60
2024/04/19 11:49:55;;;;;;;;;;;;;;;;;;5452357;26;20001;-61
2024/04/19 11:52:20;;;;;;;;;;;;;;;;;;5452609;26;19936;-61
2024/04/19 11:54:45;;;;;;;;;;;;;;;;;;5451416;26;19929;-62
2024/04/19 11:57:10;;;;;;;;;;;;;;;;;;5444909;26;19945;-62
2024/04/19 11:59:35;;;;;;;;;;;;;;;;;;5471134;26;19936;-61
2024/04/19 12:02:01;;;;;;;;;;;;;;;;;;5475569;26;19936;-62
2024/04/19 12:04:26;;;;;;;;;;;;;;;;;;5473815;26;19928;-61
2024/04/19 12:06:51;;;;;;;;;;;;;;;;;;5468848;26;19939;-63
2024/04/19 12:09:16;;;;;;;;;;;;;;;;;;5452364;26;19997;-62
2024/04/19 12:11:42;;;;;;;;;;;;;;;;;;5452243;26;19954;-62
2024/04/19 12:14:07;;;;;;;;;;;;;;;;;;5454352;26;20368;-63
2024/04/19 12:16:32;;;;;;;;;;;;;;;;;;5451911;26;19936;-63
2024/04/19 12:18:57;;;;;;;;;;;;;;;;;;5451847;26;19940;-63
2024/04/19 12:21:23;;;;;;;;;;;;;;;;;;5452033;26;20280;-62
2024/04/19 12:23:48;;;;;;;;;;;;;;;;;;5451649;26;19928;-62
2024/04/19 12:26:13;;;;;;;;;;;;;;;;;;5451775;26;19936;-63
2024/04/19 12:28:38;;;;;;;;;;;;;;;;;;5451556;26;20285;-62
2024/04/19 12:31:04;;;;;;;;;;;;;;;;;;5446399;26;19944;-62
2024/04/19 12:33:29;;;;;;;;;;;;;;;;;;5450386;26;19944;-63
2024/04/19 12:35:54;;;;;;;;;;;;;;;;;;5451401;26;19948;-62
2024/04/19 12:38:19;;;;;;;;;;;;;;;;;;5451502;26;19928;-63
2024/04/19 12:40:44;;;;;;;;;;;;;;;;;;5451518;26;19932;-63
2024/04/19 12:43:09;;;;;;;;;;;;;;;;;;5451922;26;19929;-62
2024/04/19 12:45:34;;;;;;;;;;;;;;;;;;5452315;26;20009;-63
2024/04/19 12:47:59;;;;;;;;;;;;;;;;;;5450738;26;19936;-62
2024/04/19 12:50:25;;;;;;;;;;;;;;;;;;5451879;26;19932;-62
2024/04/19 12:52:50;;;;;;;;;;;;;;;;;;5451003;26;19936;-62
2024/04/19 12:55:15;;;;;;;;;;;;;;;;;;5451793;26;20401;-62
2024/04/19 12:57:40;;;;;;;;;;;;;;;;;;5450579;26;20752;-62
2024/04/19 13:00:05;;;;;;;;;;;;;;;;;;5451862;26;20433;-62
2024/04/19 13:02:32;;;;;;;;;;;;;;;;;;5450584;26;20466;-62
2024/04/19 13:04:57;;;;;;;;;;;;;;;;;;5459016;26;19935;-62
2024/04/19 13:07:22;;;;;;;;;;;;;;;;;;5451034;26;19935;-61
2024/04/19 13:09:47;;;;;;;;;;;;;;;;;;5451370;26;19936;-61
2024/04/19 13:12:13;;;;;;;;;;;;;;;;;;5452391;26;19935;-61
2024/04/19 13:14:38;;;;;;;;;;;;;;;;;;5472052;26;19929;-61
2024/04/19 13:17:03;;;;;;;;;;;;;;;;;;5450810;26;19933;-61
2024/04/19 13:19:28;;;;;;;;;;;;;;;;;;5450508;26;19944;-62
2024/04/19 13:21:53;;;;;;;;;;;;;;;;;;5484505;26;19928;-61
2024/04/19 13:24:19;;;;;;;;;;;;;;;;;;5468676;26;19928;-61
2024/04/19 13:26:44;;;;;;;;;;;;;;;;;;5480459;26;19935;-62
2024/04/19 13:29:09;;;;;;;;;;;;;;;;;;5487507;26;19928;-61
2024/04/19 13:31:34;;;;;;;;;;;;;;;;;;5468909;26;19964;-61
2024/04/19 13:33:59;;;;;;;;;;;;;;;;;;5482530;26;19931;-62
2024/04/19 13:36:24;;;;;;;;;;;;;;;;;;5468165;26;19928;-63
2024/04/19 13:38:49;;;;;;;;;;;;;;;;;;5475264;26;19944;-63
2024/04/19 13:41:14;;;;;;;;;;;;;;;;;;5457100;26;19940;-63
2024/04/19 13:43:40;;;;;;;;;;;;;;;;;;5442906;26;19963;-63
2024/04/19 13:46:05;;;;;;;;;;;;;;;;;;5442765;26;20740;-62
2024/04/19 13:48:36;;;;;;;;;;;;;;;;;;5450731;26;20465;-63
2024/04/19 13:51:01;;;;;;;;;;;;;;;;;;5450729;26;19932;-62
2024/04/19 13:53:27;;;;;;;;;;;;;;;;;;5450535;26;19932;-62
2024/04/19 13:55:52;;;;;;;;;;;;;;;;;;5450569;26;19953;-63
2024/04/19 13:58:17;;;;;;;;;;;;;;;;;;5450900;26;19929;-62
2024/04/19 14:00:42;;;;;;;;;;;;;;;;;;5450665;26;19936;-62
2024/04/19 14:03:08;;;;;;;;;;;;;;;;;;5450761;26;19937;-63
2024/04/19 14:05:33;;;;;;;;;;;;;;;;;;5450778;26;19944;-63
2024/04/19 14:07:59;;;;;;;;;;;;;;;;;;5449649;26;19961;-62
2024/04/19 14:10:24;;;;;;;;;;;;;;;;;;5449797;26;19929;-62
2024/04/19 14:12:54;;;;;;;;;;;;;;;;;;5448429;26;19929;-63
2024/04/19 14:15:19;;;;;;;;;;;;;;;;;;5450145;26;20345;-63
2024/04/19 14:17:44;;;;;;;;;;;;;;;;;;5450481;26;19929;-62
2024/04/19 14:20:10;;;;;;;;;;;;;;;;;;5450600;26;19932;-62
2024/04/19 14:22:35;;;;;;;;;;;;;;;;;;5450369;26;20361;-62
2024/04/19 14:25:00;;;;;;;;;;;;;;;;;;5450287;26;20425;-62
2024/04/19 14:27:25;;;;;;;;;;;;;;;;;;5450052;26;19928;-62
2024/04/19 14:29:53;;;;;;;;;;;;;;;;;;5449850;26;19928;-62
2024/04/19 14:32:18;;;;;;;;;;;;;;;;;;5449240;26;19928;-62
2024/04/19 14:34:43;;;;;;;;;;;;;;;;;;5449423;26;19978;-63
2024/04/19 14:37:08;;;;;;;;;;;;;;;;;;5449719;26;19928;-62
2024/04/19 14:39:33;;;;;;;;;;;;;;;;;;5449894;26;19996;-62
2024/04/19 14:41:58;;;;;;;;;;;;;;;;;;5449625;26;20014;-62
2024/04/19 14:44:23;;;;;;;;;;;;;;;;;;5450205;26;20384;-62
2024/04/19 14:46:49;;;;;;;;;;;;;;;;;;5449734;26;20380;-62
2024/04/19 14:49:14;;;;;;;;;;;;;;;;;;5449861;26;19936;-62
2024/04/19 14:51:39;;;;;;;;;;;;;;;;;;5449804;26;19940;-63
2024/04/19 14:54:05;;;;;;;;;;;;;;;;;;5449445;26;19936;-62
2024/04/19 14:56:30;;;;;;;;;;;;;;;;;;5449835;26;20423;-62
2024/04/19 14:58:56;;;;;;;;;;;;;;;;;;5448782;26;20373;-62
2024/04/19 15:01:21;;;;;;;;;;;;;;;;;;5449123;26;19929;-62
2024/04/19 15:03:47;;;;;;;;;;;;;;;;;;5448353;26;19932;-62
2024/04/19 15:06:12;;;;;;;;;;;;;;;;;;5449457;26;19928;-62
2024/04/19 15:08:37;;;;;;;;;;;;;;;;;;5448571;26;19944;-62
2024/04/19 15:11:02;;;;;;;;;;;;;;;;;;5451883;26;19929;-62
2024/04/19 15:13:28;;;;;;;;;;;;;;;;;;5452256;26;19932;-62
2024/04/19 15:15:53;;;;;;;;;;;;;;;;;;5452757;26;19999;-62
2024/04/19 15:18:18;;;;;;;;;;;;;;;;;;5453210;26;19936;-62
2024/04/19 15:20:43;;;;;;;;;;;;;;;;;;5453132;26;19939;-62
2024/04/19 15:23:08;;;;;;;;;;;;;;;;;;5452770;26;19996;-62
2024/04/19 15:25:33;;;;;;;;;;;;;;;;;;5452951;26;20334;-62
2024/04/19 15:27:59;;;;;;;;;;;;;;;;;;5453179;26;19928;-62
2024/04/19 15:30:24;;;;;;;;;;;;;;;;;;5452996;26;19929;-62
2024/04/19 15:32:49;;;;;;;;;;;;;;;;;;5452818;26;19929;-61
2024/04/19 15:35:14;;;;;;;;;;;;;;;;;;5452908;26;20314;-59
2024/04/19 15:37:39;;;;;;;;;;;;;;;;;;5452829;26;20361;-60
2024/04/19 15:40:05;;;;;;;;;;;;;;;;;;5452995;26;19939;-61
2024/04/19 15:42:30;;;;;;;;;;;;;;;;;;5452785;26;19978;-59
2024/04/19 15:44:55;;;;;;;;;;;;;;;;;;5452620;26;19940;-59
2024/04/19 15:47:20;;;;;;;;;;;;;;;;;;5451793;26;19973;-62
2024/04/19 15:49:49;;;;;;;;;;;;;;;;;;5452517;26;19928;-61
2024/04/19 15:52:15;;;;;;;;;;;;;;;;;;5452184;26;19936;-60
2024/04/19 15:54:40;;;;;;;;;;;;;;;;;;5452443;26;19936;-60
2024/04/19 15:57:05;;;;;;;;;;;;;;;;;;5452737;26;19929;-60
2024/04/19 15:59:30;;;;;;;;;;;;;;;;;;5452684;26;20335;-63
2024/04/19 16:01:55;;;;;;;;;;;;;;;;;;5451947;26;19935;-62
2024/04/19 16:04:20;;;;;;;;;;;;;;;;;;5452656;26;19935;-60
2024/04/19 16:06:46;;;;;;;;;;;;;;;;;;5451829;26;19928;-60
2024/04/19 16:09:11;;;;;;;;;;;;;;;;;;5452336;26;19943;-59
2024/04/19 16:11:36;;;;;;;;;;;;;;;;;;5452446;26;19928;-60
2024/04/19 16:14:01;;;;;;;;;;;;;;;;;;5452360;26;19929;-59
2024/04/19 16:16:26;;;;;;;;;;;;;;;;;;5452165;26;19929;-60
2024/04/19 16:18:51;;;;;;;;;;;;;;;;;;5451571;26;19928;-60
2024/04/19 16:21:16;;;;;;;;;;;;;;;;;;5450858;26;19928;-60
2024/04/19 16:23:43;;;;;;;;;;;;;;;;;;5452266;26;19936;-60
2024/04/19 16:26:09;;;;;;;;;;;;;;;;;;5451800;26;19928;-59
2024/04/19 16:28:34;;;;;;;;;;;;;;;;;;5451523;26;20050;-60
2024/04/19 16:30:59;;;;;;;;;;;;;;;;;;5451617;26;20442;-60
2024/04/19 16:33:24;;;;;;;;;;;;;;;;;;5462089;26;19928;-60
2024/04/19 16:35:49;;;;;;;;;;;;;;;;;;5471926;26;19936;-61
2024/04/19 16:38:15;;;;;;;;;;;;;;;;;;5476090;26;19932;-59
2024/04/19 16:40:40;;;;;;;;;;;;;;;;;;5474637;26;19931;-61